Coupar Angus, United Kingdom
Current Conditions -  °F | °C
As of 3:50 PM on Thursday 23 Oct 2014 (Local Time) from EGPN Reporting Station
Broken Clouds Broken Clouds  
Wind Chill: 55°   Ceiling: 3500
Heat Index: 55°   Visibility: 6mi
Dew Point: 54°   Wind: 20mph
Humidity: 94%   Direction: 230°SW
Pressure: 29.68"   Gusts: NA
Location:  56.55°N, 3.27°W
Report Text: EGPN 231450Z 23017KT 9999 FEW013 BKN035 13/12 Q1005
Loading
Personal Weather Stations






























Interactive Weather Map
Tropical Storm Tracking
New forecast layout! Learn more

10-Day Weather Forecast

Advertisements
Track Severe Weather on mobile